sensor_id;sensor_type;location;lat;lon;timestamp;temperature;humidity
6672;DHT22;3372;48.690;12.362;2022-12-18T00:00:57;-1.20;51.60
6672;DHT22;3372;48.690;12.362;2022-12-18T00:03:23;-1.20;51.50
6672;DHT22;3372;48.690;12.362;2022-12-18T00:05:49;-1.20;51.60
6672;DHT22;3372;48.690;12.362;2022-12-18T00:08:15;-1.20;52.00
6672;DHT22;3372;48.690;12.362;2022-12-18T00:10:41;-1.20;52.40
6672;DHT22;3372;48.690;12.362;2022-12-18T00:13:07;-1.10;52.60
6672;DHT22;3372;48.690;12.362;2022-12-18T00:15:37;-1.30;51.60
6672;DHT22;3372;48.690;12.362;2022-12-18T00:18:03;-1.00;51.80
6672;DHT22;3372;48.690;12.362;2022-12-18T00:20:29;-1.30;52.00
6672;DHT22;3372;48.690;12.362;2022-12-18T00:22:55;-1.00;51.80
6672;DHT22;3372;48.690;12.362;2022-12-18T00:25:21;-1.20;51.30
6672;DHT22;3372;48.690;12.362;2022-12-18T00:27:46;-1.10;51.30
6672;DHT22;3372;48.690;12.362;2022-12-18T00:30:12;-0.90;51.50
6672;DHT22;3372;48.690;12.362;2022-12-18T00:32:38;-1.00;50.60
6672;DHT22;3372;48.690;12.362;2022-12-18T00:35:04;-0.80;50.70
6672;DHT22;3372;48.690;12.362;2022-12-18T00:37:30;-1.00;50.60
6672;DHT22;3372;48.690;12.362;2022-12-18T00:39:56;-1.00;50.70
6672;DHT22;3372;48.690;12.362;2022-12-18T00:42:21;-1.00;50.60
6672;DHT22;3372;48.690;12.362;2022-12-18T00:45:06;-1.20;50.70
6672;DHT22;3372;48.690;12.362;2022-12-18T00:47:31;-1.00;51.00
6672;DHT22;3372;48.690;12.362;2022-12-18T00:49:57;-1.10;51.10
6672;DHT22;3372;48.690;12.362;2022-12-18T00:52:22;-1.20;51.60
6672;DHT22;3372;48.690;12.362;2022-12-18T00:54:48;-1.20;52.00
6672;DHT22;3372;48.690;12.362;2022-12-18T00:57:14;-1.20;52.90
6672;DHT22;3372;48.690;12.362;2022-12-18T00:59:39;-1.00;52.20
6672;DHT22;3372;48.690;12.362;2022-12-18T01:02:05;-1.40;52.40
6672;DHT22;3372;48.690;12.362;2022-12-18T01:04:34;-1.20;52.80
6672;DHT22;3372;48.690;12.362;2022-12-18T01:06:59;-1.20;52.40
6672;DHT22;3372;48.690;12.362;2022-12-18T01:09:26;-1.20;52.50
6672;DHT22;3372;48.690;12.362;2022-12-18T01:11:52;-1.00;51.80
6672;DHT22;3372;48.690;12.362;2022-12-18T01:14:17;-1.00;51.90
6672;DHT22;3372;48.690;12.362;2022-12-18T01:16:43;-1.00;51.80
6672;DHT22;3372;48.690;12.362;2022-12-18T01:19:08;-1.00;52.40
6672;DHT22;3372;48.690;12.362;2022-12-18T01:21:34;-1.10;52.10
6672;DHT22;3372;48.690;12.362;2022-12-18T01:24:00;-0.90;52.10
6672;DHT22;3372;48.690;12.362;2022-12-18T01:26:26;-1.00;51.80
6672;DHT22;3372;48.690;12.362;2022-12-18T01:28:55;-0.90;50.80
6672;DHT22;3372;48.690;12.362;2022-12-18T01:31:24;-0.80;51.10
6672;DHT22;3372;48.690;12.362;2022-12-18T01:33:51;-0.80;51.40
6672;DHT22;3372;48.690;12.362;2022-12-18T01:38:47;-0.90;51.80
6672;DHT22;3372;48.690;12.362;2022-12-18T01:41:15;-0.70;51.40
6672;DHT22;3372;48.690;12.362;2022-12-18T01:43:50;-0.80;51.90
6672;DHT22;3372;48.690;12.362;2022-12-18T01:46:18;-0.90;51.80
6672;DHT22;3372;48.690;12.362;2022-12-18T01:48:46;-0.70;52.00
6672;DHT22;3372;48.690;12.362;2022-12-18T01:51:13;-1.00;52.50
6672;DHT22;3372;48.690;12.362;2022-12-18T01:53:40;-0.80;52.10
6672;DHT22;3372;48.690;12.362;2022-12-18T01:56:07;-0.60;51.50
6672;DHT22;3372;48.690;12.362;2022-12-18T01:58:54;-0.80;51.20
6672;DHT22;3372;48.690;12.362;2022-12-18T02:01:23;-0.90;51.30
6672;DHT22;3372;48.690;12.362;2022-12-18T02:03:50;-0.60;51.70
6672;DHT22;3372;48.690;12.362;2022-12-18T02:06:31;-0.80;52.00
6672;DHT22;3372;48.690;12.362;2022-12-18T02:09:22;-0.70;51.90
6672;DHT22;3372;48.690;12.362;2022-12-18T02:11:53;-0.90;51.90
6672;DHT22;3372;48.690;12.362;2022-12-18T02:14:40;-0.50;52.20
6672;DHT22;3372;48.690;12.362;2022-12-18T02:17:14;-0.70;51.00
6672;DHT22;3372;48.690;12.362;2022-12-18T02:26:26;-0.70;51.00
6672;DHT22;3372;48.690;12.362;2022-12-18T02:29:08;-0.80;50.30
6672;DHT22;3372;48.690;12.362;2022-12-18T02:31:45;-0.60;51.00
6672;DHT22;3372;48.690;12.362;2022-12-18T02:34:13;-0.60;51.50
6672;DHT22;3372;48.690;12.362;2022-12-18T02:36:41;-0.60;51.40
6672;DHT22;3372;48.690;12.362;2022-12-18T02:39:10;-0.70;51.70
6672;DHT22;3372;48.690;12.362;2022-12-18T02:41:37;-0.70;51.20
6672;DHT22;3372;48.690;12.362;2022-12-18T02:44:09;-0.90;51.60
6672;DHT22;3372;48.690;12.362;2022-12-18T02:49:31;-0.80;50.80
6672;DHT22;3372;48.690;12.362;2022-12-18T02:55:17;-0.80;51.20
6672;DHT22;3372;48.690;12.362;2022-12-18T03:00:43;-0.70;51.20
6672;DHT22;3372;48.690;12.362;2022-12-18T03:03:23;-0.60;51.10
6672;DHT22;3372;48.690;12.362;2022-12-18T03:06:01;-0.70;50.00
6672;DHT22;3372;48.690;12.362;2022-12-18T03:08:35;-0.40;49.80
6672;DHT22;3372;48.690;12.362;2022-12-18T03:11:05;-0.50;49.90
6672;DHT22;3372;48.690;12.362;2022-12-18T03:13:47;-0.70;50.00
6672;DHT22;3372;48.690;12.362;2022-12-18T03:16:18;-0.70;49.70
6672;DHT22;3372;48.690;12.362;2022-12-18T03:19:04;-0.50;49.40
6672;DHT22;3372;48.690;12.362;2022-12-18T03:21:37;-0.60;49.70
6672;DHT22;3372;48.690;12.362;2022-12-18T03:24:06;-0.50;49.30
6672;DHT22;3372;48.690;12.362;2022-12-18T03:26:34;-0.60;49.70
6672;DHT22;3372;48.690;12.362;2022-12-18T03:29:06;-0.70;50.20
6672;DHT22;3372;48.690;12.362;2022-12-18T03:31:32;-0.80;50.30
6672;DHT22;3372;48.690;12.362;2022-12-18T03:34:01;-0.60;49.30
6672;DHT22;3372;48.690;12.362;2022-12-18T03:36:27;-0.50;49.60
6672;DHT22;3372;48.690;12.362;2022-12-18T03:38:53;-0.70;50.20
6672;DHT22;3372;48.690;12.362;2022-12-18T03:41:40;-0.50;50.00
6672;DHT22;3372;48.690;12.362;2022-12-18T03:44:13;-0.40;50.20
6672;DHT22;3372;48.690;12.362;2022-12-18T03:51:55;-0.50;49.40
6672;DHT22;3372;48.690;12.362;2022-12-18T03:54:24;-0.30;49.60
6672;DHT22;3372;48.690;12.362;2022-12-18T03:56:57;-0.50;49.00
6672;DHT22;3372;48.690;12.362;2022-12-18T03:59:25;-0.40;48.30
6672;DHT22;3372;48.690;12.362;2022-12-18T04:01:52;-0.60;48.00
6672;DHT22;3372;48.690;12.362;2022-12-18T04:04:19;-0.40;48.70
6672;DHT22;3372;48.690;12.362;2022-12-18T04:06:47;-0.40;48.90
6672;DHT22;3372;48.690;12.362;2022-12-18T04:09:13;-0.70;48.60
6672;DHT22;3372;48.690;12.362;2022-12-18T04:11:41;-0.50;49.40
6672;DHT22;3372;48.690;12.362;2022-12-18T04:14:09;-0.60;49.80
6672;DHT22;3372;48.690;12.362;2022-12-18T04:16:34;-0.80;49.50
6672;DHT22;3372;48.690;12.362;2022-12-18T04:19:00;-0.80;49.50
6672;DHT22;3372;48.690;12.362;2022-12-18T04:21:25;-0.80;49.90
6672;DHT22;3372;48.690;12.362;2022-12-18T04:23:51;-0.50;50.50
6672;DHT22;3372;48.690;12.362;2022-12-18T04:26:17;-0.70;49.50
6672;DHT22;3372;48.690;12.362;2022-12-18T04:28:42;-0.60;49.10
6672;DHT22;3372;48.690;12.362;2022-12-18T04:31:08;-0.40;49.40
6672;DHT22;3372;48.690;12.362;2022-12-18T04:33:33;-0.80;50.20
6672;DHT22;3372;48.690;12.362;2022-12-18T04:35:59;-0.90;50.00
6672;DHT22;3372;48.690;12.362;2022-12-18T04:38:25;-0.80;49.80
6672;DHT22;3372;48.690;12.362;2022-12-18T04:40:50;-0.60;49.30
6672;DHT22;3372;48.690;12.362;2022-12-18T04:43:16;-0.70;50.10
6672;DHT22;3372;48.690;12.362;2022-12-18T04:45:42;-0.70;49.20
6672;DHT22;3372;48.690;12.362;2022-12-18T04:48:08;-0.70;49.20
6672;DHT22;3372;48.690;12.362;2022-12-18T04:50:33;-0.70;49.40
6672;DHT22;3372;48.690;12.362;2022-12-18T04:52:59;-0.80;49.00
6672;DHT22;3372;48.690;12.362;2022-12-18T04:55:25;-0.60;49.00
6672;DHT22;3372;48.690;12.362;2022-12-18T04:57:51;-0.60;49.20
6672;DHT22;3372;48.690;12.362;2022-12-18T05:00:16;-0.70;49.30
6672;DHT22;3372;48.690;12.362;2022-12-18T05:02:42;-0.70;49.00
6672;DHT22;3372;48.690;12.362;2022-12-18T05:05:08;-0.50;48.80
6672;DHT22;3372;48.690;12.362;2022-12-18T05:07:33;-0.80;48.60
6672;DHT22;3372;48.690;12.362;2022-12-18T05:09:59;-0.60;49.00
6672;DHT22;3372;48.690;12.362;2022-12-18T05:12:25;-0.60;49.00
6672;DHT22;3372;48.690;12.362;2022-12-18T05:14:50;-0.70;48.90
6672;DHT22;3372;48.690;12.362;2022-12-18T05:17:16;-0.60;49.20
6672;DHT22;3372;48.690;12.362;2022-12-18T05:19:42;-0.70;48.70
6672;DHT22;3372;48.690;12.362;2022-12-18T05:22:08;-0.60;48.40
6672;DHT22;3372;48.690;12.362;2022-12-18T05:24:33;-0.70;48.50
6672;DHT22;3372;48.690;12.362;2022-12-18T05:26:59;-0.80;48.50
6672;DHT22;3372;48.690;12.362;2022-12-18T05:29:25;-0.80;49.00
6672;DHT22;3372;48.690;12.362;2022-12-18T05:31:50;-0.80;48.90
6672;DHT22;3372;48.690;12.362;2022-12-18T05:34:16;-0.90;48.60
6672;DHT22;3372;48.690;12.362;2022-12-18T05:36:42;-0.70;48.80
6672;DHT22;3372;48.690;12.362;2022-12-18T05:39:08;-0.80;48.40
6672;DHT22;3372;48.690;12.362;2022-12-18T05:41:34;-0.60;48.10
6672;DHT22;3372;48.690;12.362;2022-12-18T05:44:00;-0.70;48.40
6672;DHT22;3372;48.690;12.362;2022-12-18T05:46:26;-0.60;48.50
6672;DHT22;3372;48.690;12.362;2022-12-18T05:48:51;-0.70;48.20
6672;DHT22;3372;48.690;12.362;2022-12-18T05:51:19;-0.80;48.60
6672;DHT22;3372;48.690;12.362;2022-12-18T05:53:46;-1.00;48.80
6672;DHT22;3372;48.690;12.362;2022-12-18T05:56:15;-0.70;49.00
6672;DHT22;3372;48.690;12.362;2022-12-18T05:58:41;-0.80;48.80
6672;DHT22;3372;48.690;12.362;2022-12-18T06:01:20;-0.60;48.70
6672;DHT22;3372;48.690;12.362;2022-12-18T06:03:46;-0.70;48.50
6672;DHT22;3372;48.690;12.362;2022-12-18T06:06:19;-0.40;47.70
6672;DHT22;3372;48.690;12.362;2022-12-18T06:08:45;-0.70;48.40
6672;DHT22;3372;48.690;12.362;2022-12-18T06:11:11;-0.70;48.50
6672;DHT22;3372;48.690;12.362;2022-12-18T06:13:38;-0.60;49.10
6672;DHT22;3372;48.690;12.362;2022-12-18T06:16:04;-0.60;49.60
6672;DHT22;3372;48.690;12.362;2022-12-18T06:18:31;-0.70;49.10
6672;DHT22;3372;48.690;12.362;2022-12-18T06:20:57;-0.80;49.50
6672;DHT22;3372;48.690;12.362;2022-12-18T06:23:23;-0.60;48.90
6672;DHT22;3372;48.690;12.362;2022-12-18T06:25:49;-0.80;49.00
6672;DHT22;3372;48.690;12.362;2022-12-18T06:28:15;-0.90;48.60
6672;DHT22;3372;48.690;12.362;2022-12-18T06:30:43;-0.90;49.40
6672;DHT22;3372;48.690;12.362;2022-12-18T06:33:09;-0.80;48.90
6672;DHT22;3372;48.690;12.362;2022-12-18T06:35:35;-0.80;48.80
6672;DHT22;3372;48.690;12.362;2022-12-18T06:38:02;-0.70;49.20
6672;DHT22;3372;48.690;12.362;2022-12-18T06:40:27;-0.70;48.60
6672;DHT22;3372;48.690;12.362;2022-12-18T06:42:53;-0.80;48.30
6672;DHT22;3372;48.690;12.362;2022-12-18T06:45:18;-0.70;49.00
6672;DHT22;3372;48.690;12.362;2022-12-18T06:47:44;-0.70;48.70
6672;DHT22;3372;48.690;12.362;2022-12-18T06:50:10;-0.70;48.10
6672;DHT22;3372;48.690;12.362;2022-12-18T06:52:36;-0.80;48.20
6672;DHT22;3372;48.690;12.362;2022-12-18T06:55:02;-0.60;48.70
6672;DHT22;3372;48.690;12.362;2022-12-18T06:57:28;-0.80;48.70
6672;DHT22;3372;48.690;12.362;2022-12-18T06:59:54;-0.70;48.50
6672;DHT22;3372;48.690;12.362;2022-12-18T07:02:19;-0.90;48.90
6672;DHT22;3372;48.690;12.362;2022-12-18T07:04:45;-0.60;48.90
6672;DHT22;3372;48.690;12.362;2022-12-18T07:07:10;-0.90;49.10
6672;DHT22;3372;48.690;12.362;2022-12-18T07:09:36;-0.80;49.10
6672;DHT22;3372;48.690;12.362;2022-12-18T07:12:02;-0.70;49.10
6672;DHT22;3372;48.690;12.362;2022-12-18T07:14:27;-0.80;49.50
6672;DHT22;3372;48.690;12.362;2022-12-18T07:16:53;-0.90;50.20
6672;DHT22;3372;48.690;12.362;2022-12-18T07:19:19;-0.90;49.50
6672;DHT22;3372;48.690;12.362;2022-12-18T07:21:44;-0.90;49.50
6672;DHT22;3372;48.690;12.362;2022-12-18T07:24:10;-0.80;49.20
6672;DHT22;3372;48.690;12.362;2022-12-18T07:26:35;-1.00;48.80
6672;DHT22;3372;48.690;12.362;2022-12-18T07:29:01;-0.80;48.90
6672;DHT22;3372;48.690;12.362;2022-12-18T07:31:27;-1.00;48.90
6672;DHT22;3372;48.690;12.362;2022-12-18T07:33:52;-0.80;49.10
6672;DHT22;3372;48.690;12.362;2022-12-18T07:36:19;-0.90;48.60
6672;DHT22;3372;48.690;12.362;2022-12-18T07:38:47;-0.80;48.60
6672;DHT22;3372;48.690;12.362;2022-12-18T07:41:13;-0.60;48.70
6672;DHT22;3372;48.690;12.362;2022-12-18T07:43:40;-1.00;48.60
6672;DHT22;3372;48.690;12.362;2022-12-18T07:46:06;-0.60;48.60
6672;DHT22;3372;48.690;12.362;2022-12-18T07:48:32;-0.60;48.50
6672;DHT22;3372;48.690;12.362;2022-12-18T07:51:02;-0.60;48.20
6672;DHT22;3372;48.690;12.362;2022-12-18T07:53:29;-0.70;47.10
6672;DHT22;3372;48.690;12.362;2022-12-18T07:56:00;-0.50;47.50
6672;DHT22;3372;48.690;12.362;2022-12-18T07:58:26;-0.60;47.70
6672;DHT22;3372;48.690;12.362;2022-12-18T08:00:52;-0.60;47.40
6672;DHT22;3372;48.690;12.362;2022-12-18T08:03:18;-0.70;47.70
6672;DHT22;3372;48.690;12.362;2022-12-18T08:05:44;-0.70;48.60
6672;DHT22;3372;48.690;12.362;2022-12-18T08:08:09;-0.40;48.20
6672;DHT22;3372;48.690;12.362;2022-12-18T08:10:35;-0.60;48.00
6672;DHT22;3372;48.690;12.362;2022-12-18T08:13:01;-0.30;47.70
6672;DHT22;3372;48.690;12.362;2022-12-18T08:15:26;-0.40;47.80
6672;DHT22;3372;48.690;12.362;2022-12-18T08:17:52;-0.60;47.10
6672;DHT22;3372;48.690;12.362;2022-12-18T08:20:21;-0.40;48.20
6672;DHT22;3372;48.690;12.362;2022-12-18T08:22:46;-0.20;47.50
6672;DHT22;3372;48.690;12.362;2022-12-18T08:25:12;0.10;46.30
6672;DHT22;3372;48.690;12.362;2022-12-18T08:27:38;-0.10;46.20
6672;DHT22;3372;48.690;12.362;2022-12-18T08:30:04;-0.10;45.50
6672;DHT22;3372;48.690;12.362;2022-12-18T08:32:31;0.10;45.60
6672;DHT22;3372;48.690;12.362;2022-12-18T08:34:58;-0.40;45.40
6672;DHT22;3372;48.690;12.362;2022-12-18T08:37:23;-0.30;45.20
6672;DHT22;3372;48.690;12.362;2022-12-18T08:39:49;-0.40;45.20
6672;DHT22;3372;48.690;12.362;2022-12-18T08:42:15;-0.20;45.60
6672;DHT22;3372;48.690;12.362;2022-12-18T08:44:59;-0.30;45.90
6672;DHT22;3372;48.690;12.362;2022-12-18T08:47:24;-0.50;45.80
6672;DHT22;3372;48.690;12.362;2022-12-18T08:49:52;-0.40;45.90
6672;DHT22;3372;48.690;12.362;2022-12-18T08:52:17;-0.60;45.80
6672;DHT22;3372;48.690;12.362;2022-12-18T08:54:44;-0.30;46.30
6672;DHT22;3372;48.690;12.362;2022-12-18T08:57:09;-0.40;45.30
6672;DHT22;3372;48.690;12.362;2022-12-18T08:59:35;-0.30;45.70
6672;DHT22;3372;48.690;12.362;2022-12-18T09:02:01;-0.30;45.30
6672;DHT22;3372;48.690;12.362;2022-12-18T09:04:26;0.10;45.40
6672;DHT22;3372;48.690;12.362;2022-12-18T09:06:52;0.10;45.70
6672;DHT22;3372;48.690;12.362;2022-12-18T09:09:17;0.20;44.70
6672;DHT22;3372;48.690;12.362;2022-12-18T09:11:43;0.00;42.80
6672;DHT22;3372;48.690;12.362;2022-12-18T09:14:10;0.30;42.70
6672;DHT22;3372;48.690;12.362;2022-12-18T09:16:35;0.10;42.80
6672;DHT22;3372;48.690;12.362;2022-12-18T09:19:03;0.00;43.10
6672;DHT22;3372;48.690;12.362;2022-12-18T09:21:32;-0.10;44.30
6672;DHT22;3372;48.690;12.362;2022-12-18T09:23:57;-0.20;44.30
6672;DHT22;3372;48.690;12.362;2022-12-18T09:26:24;0.00;43.80
6672;DHT22;3372;48.690;12.362;2022-12-18T09:28:50;-0.10;42.70
6672;DHT22;3372;48.690;12.362;2022-12-18T09:31:18;0.10;44.00
6672;DHT22;3372;48.690;12.362;2022-12-18T09:33:44;0.10;43.20
6672;DHT22;3372;48.690;12.362;2022-12-18T09:36:12;0.00;41.70
6672;DHT22;3372;48.690;12.362;2022-12-18T09:38:38;0.00;42.60
6672;DHT22;3372;48.690;12.362;2022-12-18T09:43:51;0.10;41.70
6672;DHT22;3372;48.690;12.362;2022-12-18T09:46:23;0.10;40.30
6672;DHT22;3372;48.690;12.362;2022-12-18T09:48:52;0.10;40.60
6672;DHT22;3372;48.690;12.362;2022-12-18T09:51:28;-0.10;41.20
6672;DHT22;3372;48.690;12.362;2022-12-18T09:54:12;0.30;41.60
6672;DHT22;3372;48.690;12.362;2022-12-18T09:56:43;0.00;39.70
6672;DHT22;3372;48.690;12.362;2022-12-18T09:59:23;0.10;40.20
6672;DHT22;3372;48.690;12.362;2022-12-18T10:01:49;0.00;40.30
6672;DHT22;3372;48.690;12.362;2022-12-18T10:04:15;-0.10;41.80
6672;DHT22;3372;48.690;12.362;2022-12-18T10:07:08;0.00;40.70
6672;DHT22;3372;48.690;12.362;2022-12-18T10:09:46;0.30;40.40
6672;DHT22;3372;48.690;12.362;2022-12-18T10:12:47;0.20;40.10
6672;DHT22;3372;48.690;12.362;2022-12-18T10:15:32;0.20;39.50
6672;DHT22;3372;48.690;12.362;2022-12-18T10:20:44;0.40;40.40
6672;DHT22;3372;48.690;12.362;2022-12-18T10:23:26;-0.10;40.30
6672;DHT22;3372;48.690;12.362;2022-12-18T10:28:30;0.20;39.20
6672;DHT22;3372;48.690;12.362;2022-12-18T10:30:56;0.40;39.50
6672;DHT22;3372;48.690;12.362;2022-12-18T10:33:27;0.50;38.80
6672;DHT22;3372;48.690;12.362;2022-12-18T10:35:53;0.40;39.10
6672;DHT22;3372;48.690;12.362;2022-12-18T10:38:31;0.10;39.60
6672;DHT22;3372;48.690;12.362;2022-12-18T10:41:01;0.30;39.40
6672;DHT22;3372;48.690;12.362;2022-12-18T10:48:55;0.10;39.20
6672;DHT22;3372;48.690;12.362;2022-12-18T10:51:29;0.10;39.30
6672;DHT22;3372;48.690;12.362;2022-12-18T10:54:25;0.20;38.90
6672;DHT22;3372;48.690;12.362;2022-12-18T10:56:51;0.50;40.30
6672;DHT22;3372;48.690;12.362;2022-12-18T10:59:17;0.40;39.80
6672;DHT22;3372;48.690;12.362;2022-12-18T11:01:51;0.80;39.10
6672;DHT22;3372;48.690;12.362;2022-12-18T11:04:23;0.60;37.70
6672;DHT22;3372;48.690;12.362;2022-12-18T11:09:20;0.50;37.60
6672;DHT22;3372;48.690;12.362;2022-12-18T11:11:55;0.70;37.70
6672;DHT22;3372;48.690;12.362;2022-12-18T11:14:42;0.70;37.30
6672;DHT22;3372;48.690;12.362;2022-12-18T11:17:22;1.00;38.20
6672;DHT22;3372;48.690;12.362;2022-12-18T11:19:55;0.80;37.10
6672;DHT22;3372;48.690;12.362;2022-12-18T11:22:35;1.00;34.90
6672;DHT22;3372;48.690;12.362;2022-12-18T11:25:16;1.00;35.50
6672;DHT22;3372;48.690;12.362;2022-12-18T11:27:49;1.00;35.10
6672;DHT22;3372;48.690;12.362;2022-12-18T11:30:30;0.90;34.20
6672;DHT22;3372;48.690;12.362;2022-12-18T11:33:06;1.20;36.10
6672;DHT22;3372;48.690;12.362;2022-12-18T11:38:18;1.20;35.50
6672;DHT22;3372;48.690;12.362;2022-12-18T11:40:49;1.30;35.40
6672;DHT22;3372;48.690;12.362;2022-12-18T11:43:27;1.00;34.90
6672;DHT22;3372;48.690;12.362;2022-12-18T11:45:56;1.30;35.60
6672;DHT22;3372;48.690;12.362;2022-12-18T11:48:32;0.80;34.40
6672;DHT22;3372;48.690;12.362;2022-12-18T11:51:01;1.20;35.00
6672;DHT22;3372;48.690;12.362;2022-12-18T11:53:30;1.20;33.90
6672;DHT22;3372;48.690;12.362;2022-12-18T11:56:30;1.40;35.20
6672;DHT22;3372;48.690;12.362;2022-12-18T12:01:46;1.30;35.20
6672;DHT22;3372;48.690;12.362;2022-12-18T12:14:58;1.30;34.50
6672;DHT22;3372;48.690;12.362;2022-12-18T12:17:51;1.20;33.70
6672;DHT22;3372;48.690;12.362;2022-12-18T12:23:44;0.90;34.40
6672;DHT22;3372;48.690;12.362;2022-12-18T12:31:59;1.00;34.00
6672;DHT22;3372;48.690;12.362;2022-12-18T12:34:50;1.10;33.70
6672;DHT22;3372;48.690;12.362;2022-12-18T12:40:03;1.00;33.70
6672;DHT22;3372;48.690;12.362;2022-12-18T12:42:56;1.00;33.90
6672;DHT22;3372;48.690;12.362;2022-12-18T12:46:11;0.70;34.20
6672;DHT22;3372;48.690;12.362;2022-12-18T12:48:45;0.70;34.50
6672;DHT22;3372;48.690;12.362;2022-12-18T12:51:25;0.90;35.90
6672;DHT22;3372;48.690;12.362;2022-12-18T12:53:52;1.00;34.70
6672;DHT22;3372;48.690;12.362;2022-12-18T12:56:20;0.70;34.00
6672;DHT22;3372;48.690;12.362;2022-12-18T13:01:59;0.90;34.80
6672;DHT22;3372;48.690;12.362;2022-12-18T13:04:36;0.70;34.50
6672;DHT22;3372;48.690;12.362;2022-12-18T13:13:07;0.80;35.60
6672;DHT22;3372;48.690;12.362;2022-12-18T13:15:41;1.10;35.60
6672;DHT22;3372;48.690;12.362;2022-12-18T13:20:42;0.90;35.10
6672;DHT22;3372;48.690;12.362;2022-12-18T13:25:50;1.10;34.50
6672;DHT22;3372;48.690;12.362;2022-12-18T13:28:20;0.90;34.20
6672;DHT22;3372;48.690;12.362;2022-12-18T13:30:56;0.80;33.80
6672;DHT22;3372;48.690;12.362;2022-12-18T13:41:22;1.00;34.10
6672;DHT22;3372;48.690;12.362;2022-12-18T13:46:55;1.00;33.10
6672;DHT22;3372;48.690;12.362;2022-12-18T13:49:38;1.10;33.30
6672;DHT22;3372;48.690;12.362;2022-12-18T13:52:17;1.20;32.70
6672;DHT22;3372;48.690;12.362;2022-12-18T13:54:47;1.10;32.30
6672;DHT22;3372;48.690;12.362;2022-12-18T13:57:32;1.10;33.10
6672;DHT22;3372;48.690;12.362;2022-12-18T14:00:14;1.00;33.40
6672;DHT22;3372;48.690;12.362;2022-12-18T14:02:45;0.80;33.20
6672;DHT22;3372;48.690;12.362;2022-12-18T14:05:32;1.00;33.60
6672;DHT22;3372;48.690;12.362;2022-12-18T14:08:05;0.80;32.90
6672;DHT22;3372;48.690;12.362;2022-12-18T14:10:33;0.70;33.50
6672;DHT22;3372;48.690;12.362;2022-12-18T14:13:05;0.90;33.00
6672;DHT22;3372;48.690;12.362;2022-12-18T14:15:40;0.80;33.20
6672;DHT22;3372;48.690;12.362;2022-12-18T14:18:25;0.70;33.40
6672;DHT22;3372;48.690;12.362;2022-12-18T14:20:52;0.90;33.30
6672;DHT22;3372;48.690;12.362;2022-12-18T14:26:23;0.90;33.00
6672;DHT22;3372;48.690;12.362;2022-12-18T14:28:50;0.60;33.00
6672;DHT22;3372;48.690;12.362;2022-12-18T14:31:25;0.40;33.00
6672;DHT22;3372;48.690;12.362;2022-12-18T14:33:51;0.70;33.40
6672;DHT22;3372;48.690;12.362;2022-12-18T14:36:26;0.70;34.00
6672;DHT22;3372;48.690;12.362;2022-12-18T14:39:01;0.40;33.20
6672;DHT22;3372;48.690;12.362;2022-12-18T14:41:26;0.50;33.40
6672;DHT22;3372;48.690;12.362;2022-12-18T14:43:54;0.40;33.30
6672;DHT22;3372;48.690;12.362;2022-12-18T14:51:52;0.30;33.70
6672;DHT22;3372;48.690;12.362;2022-12-18T14:54:19;0.10;33.60
6672;DHT22;3372;48.690;12.362;2022-12-18T14:56:47;0.20;34.70
6672;DHT22;3372;48.690;12.362;2022-12-18T14:59:16;0.20;34.50
6672;DHT22;3372;48.690;12.362;2022-12-18T15:04:37;0.30;34.20
6672;DHT22;3372;48.690;12.362;2022-12-18T15:07:19;0.30;34.50
6672;DHT22;3372;48.690;12.362;2022-12-18T15:10:09;0.10;34.70
6672;DHT22;3372;48.690;12.362;2022-12-18T15:12:40;0.10;34.50
6672;DHT22;3372;48.690;12.362;2022-12-18T15:23:21;-0.10;35.00
6672;DHT22;3372;48.690;12.362;2022-12-18T15:26:02;0.00;35.10
6672;DHT22;3372;48.690;12.362;2022-12-18T15:31:03;-0.20;34.60
6672;DHT22;3372;48.690;12.362;2022-12-18T15:33:34;0.00;34.50
6672;DHT22;3372;48.690;12.362;2022-12-18T15:36:07;0.00;35.40
6672;DHT22;3372;48.690;12.362;2022-12-18T15:38:34;0.00;35.00
6672;DHT22;3372;48.690;12.362;2022-12-18T15:40:59;0.00;35.90
6672;DHT22;3372;48.690;12.362;2022-12-18T15:43:26;-0.40;35.10
6672;DHT22;3372;48.690;12.362;2022-12-18T15:46:09;-0.20;35.30
6672;DHT22;3372;48.690;12.362;2022-12-18T15:48:49;-0.40;35.30
6672;DHT22;3372;48.690;12.362;2022-12-18T15:51:21;-0.30;35.00
6672;DHT22;3372;48.690;12.362;2022-12-18T15:53:48;-0.20;35.30
6672;DHT22;3372;48.690;12.362;2022-12-18T15:56:16;-0.30;34.90
6672;DHT22;3372;48.690;12.362;2022-12-18T15:59:00;-0.40;35.40
6672;DHT22;3372;48.690;12.362;2022-12-18T16:01:30;-0.30;35.90
6672;DHT22;3372;48.690;12.362;2022-12-18T16:03:57;-0.20;35.30
6672;DHT22;3372;48.690;12.362;2022-12-18T16:06:23;-0.10;35.20
6672;DHT22;3372;48.690;12.362;2022-12-18T16:08:48;-0.30;35.30
6672;DHT22;3372;48.690;12.362;2022-12-18T16:11:29;-0.30;35.20
6672;DHT22;3372;48.690;12.362;2022-12-18T16:14:25;-0.10;35.40
6672;DHT22;3372;48.690;12.362;2022-12-18T16:16:56;-0.10;35.00
6672;DHT22;3372;48.690;12.362;2022-12-18T16:19:22;-0.20;35.20
6672;DHT22;3372;48.690;12.362;2022-12-18T16:21:49;-0.20;35.10
6672;DHT22;3372;48.690;12.362;2022-12-18T16:24:29;-0.30;34.90
6672;DHT22;3372;48.690;12.362;2022-12-18T16:26:57;-0.50;34.40
6672;DHT22;3372;48.690;12.362;2022-12-18T16:29:25;-0.50;34.40
6672;DHT22;3372;48.690;12.362;2022-12-18T16:32:01;-0.30;35.20
6672;DHT22;3372;48.690;12.362;2022-12-18T16:34:31;-0.40;34.90
6672;DHT22;3372;48.690;12.362;2022-12-18T16:36:59;-0.50;34.60
6672;DHT22;3372;48.690;12.362;2022-12-18T16:39:26;-0.30;34.80
6672;DHT22;3372;48.690;12.362;2022-12-18T16:41:52;-0.60;34.60
6672;DHT22;3372;48.690;12.362;2022-12-18T16:44:18;-0.40;35.00
6672;DHT22;3372;48.690;12.362;2022-12-18T16:46:44;-0.30;35.40
6672;DHT22;3372;48.690;12.362;2022-12-18T16:49:14;-0.50;34.70
6672;DHT22;3372;48.690;12.362;2022-12-18T16:51:40;-0.50;34.70
6672;DHT22;3372;48.690;12.362;2022-12-18T16:54:06;-0.70;35.40
6672;DHT22;3372;48.690;12.362;2022-12-18T16:56:32;-0.80;35.70
6672;DHT22;3372;48.690;12.362;2022-12-18T16:58:59;-0.90;35.80
6672;DHT22;3372;48.690;12.362;2022-12-18T17:01:26;-0.80;35.50
6672;DHT22;3372;48.690;12.362;2022-12-18T17:03:59;-0.70;35.70
6672;DHT22;3372;48.690;12.362;2022-12-18T17:06:26;-0.60;36.60
6672;DHT22;3372;48.690;12.362;2022-12-18T17:08:56;-0.70;35.70
6672;DHT22;3372;48.690;12.362;2022-12-18T17:11:23;-0.80;35.90
6672;DHT22;3372;48.690;12.362;2022-12-18T17:13:49;-0.60;35.90
6672;DHT22;3372;48.690;12.362;2022-12-18T17:16:14;-0.70;36.30
6672;DHT22;3372;48.690;12.362;2022-12-18T17:18:42;-0.80;36.30
6672;DHT22;3372;48.690;12.362;2022-12-18T17:21:08;-0.60;36.50
6672;DHT22;3372;48.690;12.362;2022-12-18T17:23:36;-0.70;36.50
6672;DHT22;3372;48.690;12.362;2022-12-18T17:26:02;-1.10;35.90
6672;DHT22;3372;48.690;12.362;2022-12-18T17:28:29;-0.80;36.50
6672;DHT22;3372;48.690;12.362;2022-12-18T17:30:55;-1.10;36.10
6672;DHT22;3372;48.690;12.362;2022-12-18T17:33:22;-1.00;36.60
6672;DHT22;3372;48.690;12.362;2022-12-18T17:35:49;-1.20;36.20
6672;DHT22;3372;48.690;12.362;2022-12-18T17:38:15;-1.20;37.70
6672;DHT22;3372;48.690;12.362;2022-12-18T17:40:40;-1.30;37.70
6672;DHT22;3372;48.690;12.362;2022-12-18T17:43:07;-1.20;38.30
6672;DHT22;3372;48.690;12.362;2022-12-18T17:45:38;-1.30;37.80
6672;DHT22;3372;48.690;12.362;2022-12-18T17:48:04;-1.40;38.10
6672;DHT22;3372;48.690;12.362;2022-12-18T17:50:32;-1.10;38.00
6672;DHT22;3372;48.690;12.362;2022-12-18T17:52:58;-1.10;37.70
6672;DHT22;3372;48.690;12.362;2022-12-18T17:55:24;-1.00;37.90
6672;DHT22;3372;48.690;12.362;2022-12-18T17:57:50;-1.00;37.50
6672;DHT22;3372;48.690;12.362;2022-12-18T18:00:16;-1.10;37.40